^^
Datos históricos de la estación: Murcia-Puente Tocinos
Diario Informe para Enero 5, 2019 Unidades:  Ambas    Ingés   Métrico
Diario Semanal Mensual Anual
  Máxima: Mínima: Promedio:
Temperatura: 71.6 °F /  22 °C 57.4 °F /  14.1 °C 64.6 °F /  18.1 °C
Punto de rocio: 56.1 °F /  13.4 °C 48.9 °F /  9.4 °C 52.9 °F /  11.6 °C
Humedad: 85% 49% 67%
Velocidad viento: 12.3mph /  19.8km/h - 6.3mph /  10.1km/h
Racha viento: 22mph /  35.4km/h - -
Viento- - SE
Presión: 30 in /  1015.2 hPa 29.8 in /  1010.3 hPa -
Precipitación: 0 in /  0.0 mm    
 
 
Tabla de datos para Enero 5, 2019
Hora Temperatura Punto de rocio Presión Viento Velocidad viento Racha viento Humedad Intensidad lluvia(por hora) Nubes
00:04 62.1 °F /  16.7 °C 55.2 °F /  12.9 °C 29.9in /  1011.4hPa SE 2.9mph /  4.6km/h 7mph /  11.3km/h 78% 0in /  0.0mm
00:09 62.1 °F /  16.7 °C 55 °F /  12.8 °C 29.9in /  1011.4hPa ESE 2.7mph /  4.3km/h 7mph /  11.3km/h 78% 0in /  0.0mm
00:14 62.1 °F /  16.7 °C 55.2 °F /  12.9 °C 29.9in /  1011.4hPa ESE 2mph /  3.2km/h 5mph /  8km/h 78% 0in /  0.0mm
00:19 62.2 °F /  16.8 °C 55.2 °F /  12.9 °C 29.9in /  1011.4hPa ESE 1.4mph /  2.3km/h 4.3mph /  6.9km/h 78% 0in /  0.0mm
00:24 62.2 °F /  16.8 °C 55.2 °F /  12.9 °C 29.9in /  1011.3hPa Calm   5mph /  8km/h 78% 0in /  0.0mm
00:29 62.2 °F /  16.8 °C 55.2 °F /  12.9 °C 29.9in /  1011.3hPa NO 0.7mph /  1.2km/h 5.8mph /  9.3km/h 78% 0in /  0.0mm
00:34 62.1 °F /  16.7 °C 55.2 °F /  12.9 °C 29.9in /  1011.3hPa NO 2.4mph /  3.9km/h 6mph /  9.7km/h 78% 0in /  0.0mm
00:39 62.1 °F /  16.7 °C 55 °F /  12.8 °C 29.9in /  1011.2hPa ONO 2.2mph /  3.6km/h 5.2mph /  8.4km/h 78% 0in /  0.0mm
00:44 62.1 °F /  16.7 °C 55 °F /  12.8 °C 29.9in /  1011.2hPa SO 1.8mph /  2.9km/h 8.1mph /  13km/h 78% 0in /  0.0mm
00:49 62.1 °F /  16.7 °C 55 °F /  12.8 °C 29.9in /  1011.3hPa ONO 2.4mph /  3.8km/h 8mph /  12.9km/h 78% 0in /  0.0mm
00:54 62.1 °F /  16.7 °C 55.2 °F /  12.9 °C 29.9in /  1011.3hPa SSE 3.6mph /  5.8km/h 6.2mph /  10km/h 78% 0in /  0.0mm
00:59 62.1 °F /  16.7 °C 55 °F /  12.8 °C 29.9in /  1011.3hPa SSE 2.9mph /  4.7km/h 6mph /  9.7km/h 78% 0in /  0.0mm
01:04 62.2 °F /  16.8 °C 55.2 °F /  12.9 °C 29.9in /  1011.3hPa Sur 2mph /  3.2km/h 5mph /  8km/h 78% 0in /  0.0mm
01:09 62.2 °F /  16.8 °C 55.2 °F /  12.9 °C 29.9in /  1011.1hPa Sur 2mph /  3.2km/h 5.9mph /  9.5km/h 78% 0in /  0.0mm
01:14 62.2 °F /  16.8 °C 55.2 °F /  12.9 °C 29.9in /  1011.1hPa SO 2mph /  3.2km/h 8.5mph /  13.7km/h 78% 0in /  0.0mm
01:19 62.2 °F /  16.8 °C 55.4 °F /  13 °C 29.9in /  1011.2hPa SO 2.7mph /  4.4km/h 10.4mph /  16.7km/h 78.5% 0in /  0.0mm
01:24 62.2 °F /  16.8 °C 55.6 °F /  13.1 °C 29.9in /  1011.2hPa SO 4.3mph /  6.9km/h 10.7mph /  17.2km/h 79.1% 0in /  0.0mm
01:29 62.1 °F /  16.7 °C 55.8 °F /  13.2 °C 29.9in /  1011.2hPa SO 4.8mph /  7.8km/h 11mph /  17.7km/h 80% 0in /  0.0mm
01:34 62.1 °F /  16.7 °C 55.8 °F /  13.2 °C 29.9in /  1011.2hPa SO 5.9mph /  9.5km/h 9mph /  14.5km/h 80% 0in /  0.0mm
01:39 61.9 °F /  16.6 °C 55.9 °F /  13.3 °C 29.9in /  1011.2hPa SO 5.3mph /  8.6km/h 10.4mph /  16.7km/h 80.8% 0in /  0.0mm
01:44 61.9 °F /  16.6 °C 55.9 °F /  13.3 °C 29.9in /  1011.2hPa OSO 4.3mph /  6.9km/h 10mph /  16.1km/h 81% 0in /  0.0mm
01:49 61.9 °F /  16.6 °C 55.9 °F /  13.3 °C 29.9in /  1011.2hPa OSO 4.3mph /  6.9km/h 10.4mph /  16.7km/h 81% 0in /  0.0mm
01:54 61.9 °F /  16.6 °C 55.9 °F /  13.3 °C 29.9in /  1011.1hPa OSO 4.3mph /  6.9km/h 12mph /  19.3km/h 81% 0in /  0.0mm
01:59 61.7 °F /  16.5 °C 55.9 °F /  13.3 °C 29.9in /  1011.1hPa OSO 5mph /  8km/h 12mph /  19.3km/h 81.5% 0in /  0.0mm
02:04 61.5 °F /  16.4 °C 55.9 °F /  13.3 °C 29.9in /  1011.1hPa OSO 5.9mph /  9.5km/h 10mph /  16.1km/h 82% 0in /  0.0mm
02:09 61.5 °F /  16.4 °C 55.9 °F /  13.3 °C 29.9in /  1010.8hPa OSO 5.9mph /  9.5km/h 10.4mph /  16.7km/h 82% 0in /  0.0mm
02:14 61.5 °F /  16.4 °C 55.9 °F /  13.3 °C 29.9in /  1010.8hPa OSO 5.9mph /  9.5km/h 10mph /  16.1km/h 82% 0in /  0.0mm
02:19 61.5 °F /  16.4 °C 55.9 °F /  13.3 °C 29.9in /  1010.8hPa OSO 5.8mph /  9.3km/h 11.5mph /  18.5km/h 82% 0in /  0.0mm
02:24 61.5 °F /  16.4 °C 56.1 °F /  13.4 °C 29.9in /  1010.8hPa SO 5.4mph /  8.7km/h 12mph /  19.3km/h 82.8% 0in /  0.0mm
02:29 61.3 °F /  16.3 °C 56.1 °F /  13.4 °C 29.9in /  1010.8hPa SO 5.7mph /  9.2km/h 14.7mph /  23.7km/h 83% 0in /  0.0mm
02:34 61.3 °F /  16.3 °C 56.1 °F /  13.4 °C 29.9in /  1010.8hPa SO 6.4mph /  10.3km/h 15mph /  24.1km/h 83% 0in /  0.0mm
02:39 61.3 °F /  16.3 °C 56.1 °F /  13.4 °C 29.8in /  1010.6hPa SO 6.7mph /  10.8km/h 14mph /  22.5km/h 83% 0in /  0.0mm
02:44 61.3 °F /  16.3 °C 56.1 °F /  13.4 °C 29.8in /  1010.6hPa SSO 7.4mph /  11.9km/h 11mph /  17.7km/h 83% 0in /  0.0mm
02:49 61.3 °F /  16.3 °C 56.1 °F /  13.4 °C 29.8in /  1010.6hPa SSO 7.1mph /  11.4km/h 13mph /  20.9km/h 83% 0in /  0.0mm
02:54 61.2 °F /  16.2 °C 55.9 °F /  13.3 °C 29.8in /  1010.4hPa SO 6.4mph /  10.3km/h 14mph /  22.5km/h 83% 0in /  0.0mm
02:59 61.2 °F /  16.2 °C 55.9 °F /  13.3 °C 29.8in /  1010.4hPa SO 6.4mph /  10.3km/h 14mph /  22.5km/h 83% 0in /  0.0mm
03:04 61 °F /  16.1 °C 55.8 °F /  13.2 °C 29.8in /  1010.4hPa SSO 6.4mph /  10.3km/h 10mph /  16.1km/h 83% 0in /  0.0mm
03:09 61 °F /  16.1 °C 55.8 °F /  13.2 °C 29.8in /  1010.4hPa SSO 5.8mph /  9.4km/h 8.1mph /  13km/h 83% 0in /  0.0mm
03:14 60.8 °F /  16 °C 55.6 °F /  13.1 °C 29.8in /  1010.4hPa SO 4.7mph /  7.6km/h 8mph /  12.9km/h 83% 0in /  0.0mm
03:19 60.6 °F /  15.9 °C 55.4 °F /  13 °C 29.8in /  1010.4hPa SO 4.5mph /  7.2km/h 6mph /  9.7km/h 83% 0in /  0.0mm
03:24 60.6 °F /  15.9 °C 55.4 °F /  13 °C 29.8in /  1010.4hPa SO 4mph /  6.5km/h 6.9mph /  11.1km/h 83% 0in /  0.0mm
03:29 60.6 °F /  15.9 °C 55 °F /  12.8 °C 29.8in /  1010.4hPa SO 4mph /  6.5km/h 8.1mph /  13km/h 82.1% 0in /  0.0mm
03:34 60.6 °F /  15.9 °C 55 °F /  12.8 °C 29.8in /  1010.4hPa SO 4mph /  6.5km/h 8.5mph /  13.7km/h 82% 0in /  0.0mm
03:39 60.6 °F /  15.9 °C 55 °F /  12.8 °C 29.8in /  1010.3hPa SO 4.4mph /  7.1km/h 13.8mph /  22.2km/h 82% 0in /  0.0mm
03:44 60.4 °F /  15.8 °C 55 °F /  12.8 °C 29.8in /  1010.3hPa SSO 5.4mph /  8.7km/h 14mph /  22.5km/h 82% 0in /  0.0mm
03:49 60.4 °F /  15.8 °C 54.9 °F /  12.7 °C 29.8in /  1010.4hPa SSO 6mph /  9.7km/h 13mph /  20.9km/h 82% 0in /  0.0mm
03:54 60.3 °F /  15.7 °C 54.7 °F /  12.6 °C 29.8in /  1010.4hPa SO 7.4mph /  11.9km/h 12mph /  19.3km/h 82% 0in /  0.0mm
03:59 60.3 °F /  15.7 °C 54.9 °F /  12.7 °C 29.8in /  1010.4hPa SO 6.1mph /  9.8km/h 10mph /  16.1km/h 82.3% 0in /  0.0mm
04:04 60.1 °F /  15.6 °C 54.7 °F /  12.6 °C 29.8in /  1010.5hPa SO 4.3mph /  6.9km/h 7mph /  11.3km/h 82% 0in /  0.0mm
04:09 60.1 °F /  15.6 °C 54.7 °F /  12.6 °C 29.8in /  1010.5hPa SSO 4.2mph /  6.8km/h 7mph /  11.3km/h 82.1% 0in /  0.0mm
04:14 59.9 °F /  15.5 °C 54.9 °F /  12.7 °C 29.8in /  1010.5hPa Sur 4mph /  6.5km/h 8.5mph /  13.7km/h 83% 0in /  0.0mm
04:19 59.7 °F /  15.4 °C 54.5 °F /  12.5 °C 29.8in /  1010.6hPa Sur 4.3mph /  7km/h 9mph /  14.5km/h 83% 0in /  0.0mm
04:24 59.5 °F /  15.3 °C 54.5 °F /  12.5 °C 29.8in /  1010.6hPa Sur 5.2mph /  8.4km/h 8.1mph /  13km/h 83% 0in /  0.0mm
04:29 59.4 °F /  15.2 °C 54.3 °F /  12.4 °C 29.8in /  1010.6hPa Sur 5.4mph /  8.7km/h 10.4mph /  16.7km/h 83% 0in /  0.0mm
04:34 59.4 °F /  15.2 °C 54.1 °F /  12.3 °C 29.8in /  1010.6hPa SSO 5.9mph /  9.5km/h 10mph /  16.1km/h 83% 0in /  0.0mm
04:39 59.7 °F /  15.4 °C 54.1 °F /  12.3 °C 29.8in /  1010.5hPa Sur 5.9mph /  9.5km/h 10.7mph /  17.2km/h 82% 0in /  0.0mm
04:44 59.4 °F /  15.2 °C 54 °F /  12.2 °C 29.8in /  1010.5hPa Sur 5.9mph /  9.5km/h 12.3mph /  19.8km/h 82.1% 0in /  0.0mm
04:49 58.8 °F /  14.9 °C 53.8 °F /  12.1 °C 29.8in /  1010.5hPa Sur 6.4mph /  10.3km/h 12mph /  19.3km/h 83.6% 0in /  0.0mm
04:54 58.5 °F /  14.7 °C 54 °F /  12.2 °C 29.8in /  1010.4hPa SSO 7.4mph /  11.9km/h 10mph /  16.1km/h 84.8% 0in /  0.0mm
04:59 58.5 °F /  14.7 °C 54 °F /  12.2 °C 29.8in /  1010.4hPa SSO 6.5mph /  10.4km/h 10.7mph /  17.2km/h 85% 0in /  0.0mm
05:04 58.6 °F /  14.8 °C 54 °F /  12.2 °C 29.8in /  1010.4hPa SO 5.2mph /  8.4km/h 11mph /  17.7km/h 84.8% 0in /  0.0mm
05:09 58.6 °F /  14.8 °C 54 °F /  12.2 °C 29.8in /  1010.4hPa SO 5mph /  8.1km/h 9mph /  14.5km/h 84% 0in /  0.0mm
05:14 58.8 °F /  14.9 °C 54 °F /  12.2 °C 29.8in /  1010.4hPa OSO 4.7mph /  7.6km/h 8mph /  12.9km/h 83.6% 0in /  0.0mm
05:19 58.8 °F /  14.9 °C 53.8 °F /  12.1 °C 29.8in /  1010.7hPa OSO 4.4mph /  7.1km/h 6.9mph /  11.1km/h 83% 0in /  0.0mm
05:24 58.8 °F /  14.9 °C 53.8 °F /  12.1 °C 29.8in /  1010.7hPa OSO 3.6mph /  5.8km/h 7mph /  11.3km/h 83% 0in /  0.0mm
05:29 58.8 °F /  14.9 °C 53.8 °F /  12.1 °C 29.8in /  1010.7hPa SO 3.4mph /  5.5km/h 6mph /  9.7km/h 83% 0in /  0.0mm
05:34 58.8 °F /  14.9 °C 53.8 °F /  12.1 °C 29.8in /  1010.7hPa SSO 3.1mph /  5km/h 5.9mph /  9.5km/h 83% 0in /  0.0mm
05:39 58.8 °F /  14.9 °C 53.8 °F /  12.1 °C 29.8in /  1010.7hPa SSE 3.2mph /  5.2km/h 6.2mph /  10km/h 83% 0in /  0.0mm
05:44 58.8 °F /  14.9 °C 53.8 °F /  12.1 °C 29.8in /  1010.7hPa Sur 3.6mph /  5.8km/h 7.4mph /  11.9km/h 83% 0in /  0.0mm
05:49 58.8 °F /  14.9 °C 53.6 °F /  12 °C 29.9in /  1010.8hPa Sur 4.1mph /  6.6km/h 8.1mph /  13km/h 83% 0in /  0.0mm
05:54 58.6 °F /  14.8 °C 53.4 °F /  11.9 °C 29.9in /  1010.8hPa Sur 5.2mph /  8.4km/h 8.1mph /  13km/h 83% 0in /  0.0mm
05:59 58.5 °F /  14.7 °C 53.4 °F /  11.9 °C 29.9in /  1010.8hPa Sur 5.2mph /  8.4km/h 7.4mph /  11.9km/h 83% 0in /  0.0mm
06:04 58.5 °F /  14.7 °C 53.6 °F /  12 °C 29.9in /  1010.8hPa SSO 5.2mph /  8.4km/h 7mph /  11.3km/h 84% 0in /  0.0mm
06:09 58.3 °F /  14.6 °C 53.4 °F /  11.9 °C 29.8in /  1010.7hPa SSO 5.2mph /  8.4km/h 8.1mph /  13km/h 84% 0in /  0.0mm
06:14 58.3 °F /  14.6 °C 53.4 °F /  11.9 °C 29.8in /  1010.7hPa SSO 5.2mph /  8.4km/h 8.1mph /  13km/h 84% 0in /  0.0mm
06:19 58.3 °F /  14.6 °C 53.4 °F /  11.9 °C 29.9in /  1010.9hPa SSO 5.2mph /  8.4km/h 8.5mph /  13.7km/h 84% 0in /  0.0mm
06:24 58.3 °F /  14.6 °C 53.4 °F /  11.9 °C 29.9in /  1010.9hPa SSO 5.2mph /  8.4km/h 9.7mph /  15.6km/h 84% 0in /  0.0mm
06:29 58.3 °F /  14.6 °C 53.4 °F /  11.9 °C 29.9in /  1010.9hPa SSO 5.4mph /  8.7km/h 10mph /  16.1km/h 84% 0in /  0.0mm
06:34 58.3 °F /  14.6 °C 53.4 °F /  11.9 °C 29.9in /  1011.2hPa SSO 5.9mph /  9.5km/h 9mph /  14.5km/h 84% 0in /  0.0mm
06:39 58.3 °F /  14.6 °C 53.4 °F /  11.9 °C 29.9in /  1011.2hPa SO 5.7mph /  9.2km/h 9mph /  14.5km/h 84% 0in /  0.0mm
06:44 58.3 °F /  14.6 °C 53.4 °F /  11.9 °C 29.9in /  1011.2hPa SO 5.2mph /  8.4km/h 8mph /  12.9km/h 84% 0in /  0.0mm
06:49 58.5 °F /  14.7 °C 53.4 °F /  11.9 °C 29.9in /  1011.4hPa SO 5mph /  8.1km/h 8.1mph /  13km/h 83.4% 0in /  0.0mm
06:54 58.5 °F /  14.7 °C 53.2 °F /  11.8 °C 29.9in /  1011.4hPa SO 4.7mph /  7.6km/h 8mph /  12.9km/h 83% 0in /  0.0mm
06:59 58.5 °F /  14.7 °C 53.2 °F /  11.8 °C 29.9in /  1011.4hPa SO 4.4mph /  7.1km/h 7mph /  11.3km/h 83% 0in /  0.0mm
07:04 58.5 °F /  14.7 °C 53.2 °F /  11.8 °C 29.9in /  1011.8hPa Sur 4mph /  6.5km/h 6mph /  9.7km/h 83% 0in /  0.0mm
07:09 58.5 °F /  14.7 °C 53.1 °F /  11.7 °C 29.9in /  1011.8hPa SSE 3.4mph /  5.4km/h 5mph /  8km/h 82.4% 0in /  0.0mm
07:14 58.5 °F /  14.7 °C 53.1 °F /  11.7 °C 29.9in /  1011.8hPa SSE 1.8mph /  2.9km/h 5mph /  8km/h 82.6% 0in /  0.0mm
07:19 58.1 °F /  14.5 °C 53.1 °F /  11.7 °C 29.9in /  1012.2hPa ESE 1.8mph /  2.9km/h 4.6mph /  7.4km/h 83% 0in /  0.0mm
07:24 57.7 °F /  14.3 °C 52.9 °F /  11.6 °C 29.9in /  1012.2hPa NE 1.8mph /  2.9km/h 5mph /  8km/h 83.4% 0in /  0.0mm
07:29 57.6 °F /  14.2 °C 52.7 °F /  11.5 °C 29.9in /  1012.2hPa NE 2mph /  3.2km/h 5mph /  8km/h 83.5% 0in /  0.0mm
07:34 57.4 °F /  14.1 °C 52.5 °F /  11.4 °C 29.9in /  1012.5hPa ESE 2.4mph /  3.9km/h 5mph /  8km/h 84% 0in /  0.0mm
07:39 57.4 °F /  14.1 °C 52.9 °F /  11.6 °C 29.9in /  1012.5hPa ESE 2.2mph /  3.5km/h 5mph /  8km/h 84.8% 0in /  0.0mm
07:44 57.6 °F /  14.2 °C 52.9 °F /  11.6 °C 29.9in /  1012.5hPa ENE 1.8mph /  2.9km/h 3.6mph /  5.8km/h 84.8% 0in /  0.0mm
07:49 57.7 °F /  14.3 °C 52.9 °F /  11.6 °C 29.9in /  1013.0hPa NE 1.9mph /  3km/h 4.6mph /  7.4km/h 84% 0in /  0.0mm
07:54 57.7 °F /  14.3 °C 52.9 °F /  11.6 °C 29.9in /  1013.0hPa NE 2mph /  3.2km/h 5mph /  8km/h 83.9% 0in /  0.0mm
07:59 57.9 °F /  14.4 °C 52.9 °F /  11.6 °C 29.9in /  1013.0hPa NNE 2mph /  3.2km/h 5mph /  8km/h 83.2% 0in /  0.0mm
08:04 58.1 °F /  14.5 °C 53.1 °F /  11.7 °C 29.9in /  1013.2hPa NNE 2mph /  3.2km/h 5mph /  8km/h 83% 0in /  0.0mm
08:09 58.3 °F /  14.6 °C 53.1 °F /  11.7 °C 29.9in /  1013.2hPa NNE 1.4mph /  2.2km/h 1.4mph /  2.3km/h 83% 0in /  0.0mm
08:14 58.5 °F /  14.7 °C 53.1 °F /  11.7 °C 29.9in /  1013.2hPa Calm   4.6mph /  7.4km/h 82.2% 0in /  0.0mm
08:19 58.3 °F /  14.6 °C 53.1 °F /  11.7 °C 29.9in /  1013.4hPa ONO 0.6mph /  1km/h 5mph /  8km/h 82.5% 0in /  0.0mm
08:24 58.3 °F /  14.6 °C 53.1 °F /  11.7 °C 29.9in /  1013.4hPa ONO 2mph /  3.2km/h 4.6mph /  7.4km/h 83% 0in /  0.0mm
08:29 58.3 °F /  14.6 °C 53.2 °F /  11.8 °C 29.9in /  1013.4hPa ONO 2.1mph /  3.4km/h 5mph /  8km/h 83.3% 0in /  0.0mm
08:34 58.5 °F /  14.7 °C 53.4 °F /  11.9 °C 29.9in /  1013.6hPa NO 2.4mph /  3.9km/h 4mph /  6.4km/h 83.3% 0in /  0.0mm
08:39 58.8 °F /  14.9 °C 53.6 °F /  12 °C 29.9in /  1013.6hPa NO 2.3mph /  3.7km/h 4mph /  6.4km/h 83% 0in /  0.0mm
08:44 59.4 °F /  15.2 °C 54.1 °F /  12.3 °C 29.9in /  1013.6hPa NO 2mph /  3.2km/h 4.6mph /  7.4km/h 83% 0in /  0.0mm
08:49 59.9 °F /  15.5 °C 54.5 °F /  12.5 °C 29.9in /  1013.7hPa NE 1.8mph /  2.9km/h 5mph /  8km/h 82% 0in /  0.0mm
08:54 60.6 °F /  15.9 °C 54.5 °F /  12.5 °C 29.9in /  1013.7hPa NNE 1.4mph /  2.2km/h 3mph /  4.8km/h 80.4% 0in /  0.0mm
08:59 61.2 °F /  16.2 °C 54.5 °F /  12.5 °C 29.9in /  1013.7hPa North 0.8mph /  1.3km/h 4.6mph /  7.4km/h 78.5% 0in /  0.0mm
09:04 61.5 °F /  16.4 °C 54.5 °F /  12.5 °C 29.9in /  1013.8hPa Calm   5mph /  8km/h 78% 0in /  0.0mm
09:09 61.9 °F /  16.6 °C 54.7 °F /  12.6 °C 29.9in /  1013.8hPa North 0.6mph /  0.9km/h 5.4mph /  8.7km/h 77.2% 0in /  0.0mm
09:14 62.2 °F /  16.8 °C 54.9 °F /  12.7 °C 29.9in /  1013.8hPa NNE 2mph /  3.2km/h 6mph /  9.7km/h 76.9% 0in /  0.0mm
09:19 62.4 °F /  16.9 °C 54.7 °F /  12.6 °C 29.9in /  1013.9hPa NE 2.3mph /  3.7km/h 6.2mph /  10km/h 75.3% 0in /  0.0mm
09:24 62.8 °F /  17.1 °C 54.7 °F /  12.6 °C 29.9in /  1013.9hPa NE 3.1mph /  5km/h 7.4mph /  11.9km/h 75% 0in /  0.0mm
09:29 63 °F /  17.2 °C 54.7 °F /  12.6 °C 29.9in /  1013.9hPa NNE 3.4mph /  5.4km/h 7mph /  11.3km/h 74.3% 0in /  0.0mm
09:34 63.1 °F /  17.3 °C 54.7 °F /  12.6 °C 29.9in /  1014.0hPa NE 4mph /  6.5km/h 7mph /  11.3km/h 73.9% 0in /  0.0mm
09:39 63.3 °F /  17.4 °C 54.7 °F /  12.6 °C 29.9in /  1014.0hPa NE 4mph /  6.5km/h 7.6mph /  12.2km/h 73.3% 0in /  0.0mm
09:44 63.7 °F /  17.6 °C 55 °F /  12.8 °C 29.9in /  1014.0hPa NE 4mph /  6.5km/h 8.1mph /  13km/h 73.5% 0in /  0.0mm
09:49 64 °F /  17.8 °C 55.2 °F /  12.9 °C 29.9in /  1014.0hPa NE 4.1mph /  6.6km/h 8mph /  12.9km/h 72.8% 0in /  0.0mm
09:54 64.2 °F /  17.9 °C 54.9 °F /  12.7 °C 29.9in /  1014.0hPa NE 4.3mph /  6.9km/h 8.1mph /  13km/h 71.7% 0in /  0.0mm
09:59 64.6 °F /  18.1 °C 55.2 °F /  12.9 °C 29.9in /  1014.0hPa ENE 4.3mph /  6.9km/h 7mph /  11.3km/h 71.7% 0in /  0.0mm
10:04 64.8 °F /  18.2 °C 54.7 °F /  12.6 °C 29.9in /  1014.0hPa NE 4.3mph /  6.9km/h 7mph /  11.3km/h 70.2% 0in /  0.0mm
10:09 64.9 °F /  18.3 °C 54.7 °F /  12.6 °C 29.9in /  1014.0hPa NNE 4.2mph /  6.8km/h 7mph /  11.3km/h 69.6% 0in /  0.0mm
10:14 65.1 °F /  18.4 °C 54.7 °F /  12.6 °C 29.9in /  1014.0hPa ENE 4mph /  6.5km/h 7mph /  11.3km/h 69% 0in /  0.0mm
10:19 65.7 °F /  18.7 °C 54.7 °F /  12.6 °C 29.9in /  1014.1hPa NE 3.7mph /  6km/h 7mph /  11.3km/h 68% 0in /  0.0mm
10:24 66 °F /  18.9 °C 54.3 °F /  12.4 °C 29.9in /  1014.1hPa ENE 3.1mph /  5km/h 6mph /  9.7km/h 65.8% 0in /  0.0mm
10:29 66.6 °F /  19.2 °C 54.1 °F /  12.3 °C 29.9in /  1014.1hPa NE 3mph /  4.9km/h 6.9mph /  11.1km/h 64.4% 0in /  0.0mm
10:34 66.9 °F /  19.4 °C 53.6 °F /  12 °C 29.9in /  1014.1hPa NE 2.9mph /  4.6km/h 7mph /  11.3km/h 62.4% 0in /  0.0mm
10:39 67.3 °F /  19.6 °C 53.8 °F /  12.1 °C 29.9in /  1014.1hPa NE 3.2mph /  5.2km/h 6.2mph /  10km/h 62% 0in /  0.0mm
10:44 67.5 °F /  19.7 °C 53.8 °F /  12.1 °C 29.9in /  1014.1hPa ESE 4mph /  6.5km/h 6.2mph /  10km/h 61.5% 0in /  0.0mm
10:49 67.6 °F /  19.8 °C 53.8 °F /  12.1 °C 30in /  1014.2hPa SSE 3.7mph /  6km/h 8.5mph /  13.7km/h 61% 0in /  0.0mm
10:54 67.6 °F /  19.8 °C 53.8 °F /  12.1 °C 30in /  1014.2hPa ESE 3.1mph /  5km/h 9mph /  14.5km/h 61% 0in /  0.0mm
10:59 68 °F /  20 °C 52.9 °F /  11.6 °C 30in /  1014.2hPa ESE 3.6mph /  5.8km/h 11.8mph /  19km/h 58.4% 0in /  0.0mm
11:04 68 °F /  20 °C 51.8 °F /  11 °C 30in /  1014.4hPa SE 4.3mph /  6.9km/h 14mph /  22.5km/h 56% 0in /  0.0mm
11:09 67.8 °F /  19.9 °C 51.4 °F /  10.8 °C 30in /  1014.4hPa SE 5.5mph /  8.8km/h 14mph /  22.5km/h 56% 0in /  0.0mm
11:14 68.2 °F /  20.1 °C 51.3 °F /  10.7 °C 30in /  1014.4hPa SE 8.1mph /  13km/h 11.4mph /  18.3km/h 54.5% 0in /  0.0mm
11:19 68.2 °F /  20.1 °C 51.4 °F /  10.8 °C 30in /  1014.4hPa SE 7.6mph /  12.2km/h 13.8mph /  22.2km/h 54.9% 0in /  0.0mm
11:24 68.4 °F /  20.2 °C 51.4 °F /  10.8 °C 30in /  1014.4hPa SE 6.4mph /  10.3km/h 14mph /  22.5km/h 54.6% 0in /  0.0mm
11:29 68.4 °F /  20.2 °C 51.6 °F /  10.9 °C 30in /  1014.4hPa SE 6.8mph /  10.9km/h 15.2mph /  24.5km/h 55.2% 0in /  0.0mm
11:34 68.4 °F /  20.2 °C 51.8 °F /  11 °C 30in /  1014.6hPa SE 7.6mph /  12.2km/h 15mph /  24.1km/h 55.5% 0in /  0.0mm
11:39 68.4 °F /  20.2 °C 51.6 °F /  10.9 °C 30in /  1014.6hPa SE 8.1mph /  13.1km/h 15.2mph /  24.5km/h 55% 0in /  0.0mm
11:44 68.5 °F /  20.3 °C 51.6 °F /  10.9 °C 30in /  1014.6hPa ESE 9.2mph /  14.8km/h 16.3mph /  26.2km/h 55% 0in /  0.0mm
11:49 68.5 °F /  20.3 °C 51.4 °F /  10.8 °C 30in /  1014.7hPa ESE 9.2mph /  14.8km/h 18.4mph /  29.6km/h 54.4% 0in /  0.0mm
11:54 68.4 °F /  20.2 °C 51.4 °F /  10.8 °C 30in /  1014.7hPa ESE 9.2mph /  14.8km/h 18mph /  29km/h 54.8% 0in /  0.0mm
11:59 68.5 °F /  20.3 °C 51.3 °F /  10.7 °C 30in /  1014.7hPa SE 9.6mph /  15.5km/h 16.3mph /  26.2km/h 54.3% 0in /  0.0mm
12:04 68.9 °F /  20.5 °C 51.3 °F /  10.7 °C 30in /  1014.7hPa ESE 10.2mph /  16.4km/h 17.5mph /  28.2km/h 53.2% 0in /  0.0mm
12:09 68.9 °F /  20.5 °C 51.1 °F /  10.6 °C 30in /  1014.6hPa ESE 10.1mph /  16.3km/h 17.3mph /  27.8km/h 53% 0in /  0.0mm
12:14 68.9 °F /  20.5 °C 51.1 °F /  10.6 °C 30in /  1014.6hPa ESE 10mph /  16.1km/h 18.1mph /  29.1km/h 53% 0in /  0.0mm
12:19 68.7 °F /  20.4 °C 50.9 °F /  10.5 °C 30in /  1014.7hPa ESE 10.6mph /  17km/h 18.5mph /  29.8km/h 52.8% 0in /  0.0mm
12:24 68.9 °F /  20.5 °C 51.1 °F /  10.6 °C 30in /  1014.7hPa ESE 11.8mph /  19km/h 19mph /  30.6km/h 53% 0in /  0.0mm
12:29 68.9 °F /  20.5 °C 51.1 °F /  10.6 °C 30in /  1014.7hPa ESE 11.1mph /  17.8km/h 17mph /  27.4km/h 53% 0in /  0.0mm
12:34 69.3 °F /  20.7 °C 51.4 °F /  10.8 °C 30in /  1014.9hPa ESE 9.2mph /  14.8km/h 16.1mph /  25.9km/h 53.2% 0in /  0.0mm
12:39 69.3 °F /  20.7 °C 51.3 °F /  10.7 °C 30in /  1014.9hPa SE 9.7mph /  15.6km/h 18.5mph /  29.8km/h 52.8% 0in /  0.0mm
12:44 69.3 °F /  20.7 °C 50.9 °F /  10.5 °C 30in /  1014.9hPa ESE 10.7mph /  17.2km/h 19mph /  30.6km/h 52% 0in /  0.0mm
12:49 69.1 °F /  20.6 °C 50 °F /  10 °C 30in /  1015.0hPa ESE 10.9mph /  17.5km/h 17.5mph /  28.2km/h 50.5% 0in /  0.0mm
12:54 69.1 °F /  20.6 °C 50 °F /  10 °C 30in /  1015.0hPa ESE 11.2mph /  18km/h 20.8mph /  33.5km/h 50.6% 0in /  0.0mm
12:59 68.9 °F /  20.5 °C 49.5 °F /  9.7 °C 30in /  1015.0hPa ESE 11mph /  17.7km/h 21mph /  33.8km/h 50% 0in /  0.0mm
13:04 68.9 °F /  20.5 °C 48.9 °F /  9.4 °C 30in /  1015.1hPa ESE 10.7mph /  17.2km/h 19.2mph /  30.9km/h 49% 0in /  0.0mm
13:09 68.7 °F /  20.4 °C 49.1 °F /  9.5 °C 30in /  1015.1hPa ESE 11mph /  17.7km/h 19mph /  30.6km/h 49.7% 0in /  0.0mm
13:14 69.3 °F /  20.7 °C 49.5 °F /  9.7 °C 30in /  1015.1hPa SE 11.8mph /  19km/h 19mph /  30.6km/h 49.6% 0in /  0.0mm
13:19 69.1 °F /  20.6 °C 49.6 °F /  9.8 °C 30in /  1015.1hPa SE 11.6mph /  18.7km/h 19.6mph /  31.5km/h 50% 0in /  0.0mm
13:24 68.9 °F /  20.5 °C 50 °F /  10 °C 30in /  1015.0hPa ESE 11.2mph /  18km/h 20mph /  32.2km/h 51% 0in /  0.0mm
13:29 69.1 °F /  20.6 °C 50.7 °F /  10.4 °C 30in /  1015.0hPa ESE 10.9mph /  17.5km/h 20.7mph /  33.3km/h 51.8% 0in /  0.0mm
13:34 68.7 °F /  20.4 °C 51.1 °F /  10.6 °C 30in /  1015.0hPa ESE 10mph /  16.1km/h 21mph /  33.8km/h 53.4% 0in /  0.0mm
13:39 68.5 °F /  20.3 °C 51.3 °F /  10.7 °C 30in /  1015.0hPa SE 10.5mph /  16.9km/h 21.3mph /  34.3km/h 53.8% 0in /  0.0mm
13:44 68.5 °F /  20.3 °C 51.4 °F /  10.8 °C 30in /  1015.0hPa SE 11.8mph /  19km/h 21mph /  33.8km/h 54.3% 0in /  0.0mm
13:49 68.5 °F /  20.3 °C 51.8 °F /  11 °C 30in /  1015.0hPa ESE 11.9mph /  19.2km/h 21mph /  33.8km/h 55% 0in /  0.0mm
13:54 69.3 °F /  20.7 °C 52.2 °F /  11.2 °C 30in /  1014.8hPa ESE 12.3mph /  19.8km/h 19mph /  30.6km/h 54.9% 0in /  0.0mm
13:59 69.1 °F /  20.6 °C 52 °F /  11.1 °C 30in /  1014.8hPa ESE 11.6mph /  18.7km/h 19mph /  30.6km/h 54.4% 0in /  0.0mm
14:04 68.9 °F /  20.5 °C 51.8 °F /  11 °C 30in /  1014.9hPa ESE 10.7mph /  17.2km/h 19mph /  30.6km/h 54.5% 0in /  0.0mm
14:09 68.9 °F /  20.5 °C 51.8 °F /  11 °C 30in /  1014.9hPa ESE 10.8mph /  17.4km/h 18mph /  29km/h 54.3% 0in /  0.0mm
14:14 69.4 °F /  20.8 °C 52 °F /  11.1 °C 30in /  1014.9hPa ESE 11.2mph /  18km/h 20.7mph /  33.3km/h 54.1% 0in /  0.0mm
14:19 69.4 °F /  20.8 °C 51.8 °F /  11 °C 30in /  1014.9hPa ESE 11.1mph /  17.8km/h 21mph /  33.8km/h 53.5% 0in /  0.0mm
14:24 69.6 °F /  20.9 °C 51.8 °F /  11 °C 30in /  1014.8hPa ESE 10.7mph /  17.2km/h 18mph /  29km/h 53% 0in /  0.0mm
14:29 69.6 °F /  20.9 °C 51.3 °F /  10.7 °C 30in /  1014.8hPa ESE 10.7mph /  17.2km/h 18.5mph /  29.8km/h 52.3% 0in /  0.0mm
14:34 69.4 °F /  20.8 °C 51.6 °F /  10.9 °C 30in /  1014.8hPa ESE 10.7mph /  17.2km/h 21.9mph /  35.2km/h 52.9% 0in /  0.0mm
14:39 69.4 °F /  20.8 °C 51.6 °F /  10.9 °C 30in /  1014.8hPa ESE 10.8mph /  17.4km/h 22mph /  35.4km/h 53.1% 0in /  0.0mm
14:44 69.6 °F /  20.9 °C 51.8 °F /  11 °C 30in /  1014.8hPa ESE 11.2mph /  18km/h 20.8mph /  33.5km/h 53.3% 0in /  0.0mm
14:49 69.6 °F /  20.9 °C 51.3 °F /  10.7 °C 30in /  1014.8hPa SE 11.2mph /  18km/h 21mph /  33.8km/h 52.1% 0in /  0.0mm
14:54 69.6 °F /  20.9 °C 51.1 °F /  10.6 °C 30in /  1014.7hPa SE 11.2mph /  18km/h 20.7mph /  33.3km/h 51.9% 0in /  0.0mm
14:59 69.4 °F /  20.8 °C 51.1 °F /  10.6 °C 30in /  1014.7hPa SE 10.6mph /  17km/h 21mph /  33.8km/h 52.1% 0in /  0.0mm
15:04 70.2 °F /  21.2 °C 51.4 °F /  10.8 °C 30in /  1014.7hPa ESE 9.7mph /  15.6km/h 15.9mph /  25.6km/h 51.8% 0in /  0.0mm
15:09 70.2 °F /  21.2 °C 51.3 °F /  10.7 °C 30in /  1014.7hPa SE 9.4mph /  15.1km/h 17.3mph /  27.8km/h 51.4% 0in /  0.0mm
15:14 70.2 °F /  21.2 °C 51.1 °F /  10.6 °C 30in /  1014.7hPa ESE 8.7mph /  14km/h 17mph /  27.4km/h 51.1% 0in /  0.0mm
15:19 70.2 °F /  21.2 °C 51.4 °F /  10.8 °C 30in /  1014.7hPa ESE 8.5mph /  13.7km/h 17.3mph /  27.8km/h 51.3% 0in /  0.0mm
15:24 70.2 °F /  21.2 °C 51.4 °F /  10.8 °C 30in /  1014.5hPa ESE 8.1mph /  13km/h 20.1mph /  32.3km/h 51.4% 0in /  0.0mm
15:29 70.2 °F /  21.2 °C 51.6 °F /  10.9 °C 30in /  1014.5hPa ESE 9.1mph /  14.6km/h 20mph /  32.2km/h 51.8% 0in /  0.0mm
15:34 70.3 °F /  21.3 °C 51.4 °F /  10.8 °C 30in /  1014.5hPa Este 11.2mph /  18km/h 18mph /  29km/h 51.3% 0in /  0.0mm
15:39 70.7 °F /  21.5 °C 52 °F /  11.1 °C 30in /  1014.5hPa Este 10.4mph /  16.8km/h 18.5mph /  29.8km/h 51.5% 0in /  0.0mm
15:44 70.7 °F /  21.5 °C 51.6 °F /  10.9 °C 30in /  1014.5hPa ESE 8.7mph /  14km/h 19mph /  30.6km/h 50.8% 0in /  0.0mm
15:49 70.3 °F /  21.3 °C 51.8 °F /  11 °C 30in /  1014.5hPa ESE 9.3mph /  14.9km/h 18mph /  29km/h 51.9% 0in /  0.0mm
15:54 70.5 °F /  21.4 °C 51.8 °F /  11 °C 30in /  1014.3hPa ESE 10.7mph /  17.2km/h 17.5mph /  28.2km/h 51.6% 0in /  0.0mm
15:59 70.7 °F /  21.5 °C 52.2 °F /  11.2 °C 30in /  1014.3hPa ESE 10.1mph /  16.2km/h 17.5mph /  28.2km/h 51.9% 0in /  0.0mm
16:04 70.9 °F /  21.6 °C 52.3 °F /  11.3 °C 30in /  1014.3hPa ESE 9.2mph /  14.8km/h 17mph /  27.4km/h 52% 0in /  0.0mm
16:09 71.1 °F /  21.7 °C 52.2 °F /  11.2 °C 30in /  1014.2hPa SE 9.2mph /  14.8km/h 18.4mph /  29.6km/h 51.4% 0in /  0.0mm
16:14 71.1 °F /  21.7 °C 52.5 °F /  11.4 °C 30in /  1014.2hPa ESE 9.2mph /  14.8km/h 18mph /  29km/h 51.9% 0in /  0.0mm
16:19 71.1 °F /  21.7 °C 52.5 °F /  11.4 °C 30in /  1014.2hPa ESE 9.2mph /  14.8km/h 16.3mph /  26.2km/h 52% 0in /  0.0mm
16:24 71.2 °F /  21.8 °C 52.5 °F /  11.4 °C 29.9in /  1014.0hPa ESE 9.2mph /  14.8km/h 16.1mph /  25.9km/h 51.8% 0in /  0.0mm
16:29 71.6 °F /  22 °C 52.5 °F /  11.4 °C 29.9in /  1014.0hPa Este 8.8mph /  14.1km/h 17.5mph /  28.2km/h 51% 0in /  0.0mm
16:34 71.2 °F /  21.8 °C 52.5 °F /  11.4 °C 29.9in /  1014.0hPa ESE 7.6mph /  12.2km/h 18.4mph /  29.6km/h 51.5% 0in /  0.0mm
16:39 71.2 °F /  21.8 °C 52.7 °F /  11.5 °C 29.9in /  1013.7hPa Este 7.9mph /  12.7km/h 18mph /  29km/h 51.9% 0in /  0.0mm
16:44 71.4 °F /  21.9 °C 52.5 °F /  11.4 °C 29.9in /  1013.7hPa Este 8.5mph /  13.7km/h 16.1mph /  25.9km/h 51.2% 0in /  0.0mm
16:49 71.2 °F /  21.8 °C 52.2 °F /  11.2 °C 29.9in /  1013.7hPa ESE 8.9mph /  14.4km/h 17.5mph /  28.2km/h 51.3% 0in /  0.0mm
16:54 71.1 °F /  21.7 °C 52.3 °F /  11.3 °C 29.9in /  1013.6hPa ESE 10mph /  16.1km/h 17mph /  27.4km/h 51.7% 0in /  0.0mm
16:59 71.2 °F /  21.8 °C 52.3 °F /  11.3 °C 29.9in /  1013.6hPa ESE 9.4mph /  15.2km/h 16.1mph /  25.9km/h 51.2% 0in /  0.0mm
17:04 71.2 °F /  21.8 °C 52.2 °F /  11.2 °C 29.9in /  1013.6hPa ESE 8.7mph /  14km/h 16.1mph /  25.9km/h 51% 0in /  0.0mm
17:09 71.1 °F /  21.7 °C 52 °F /  11.1 °C 29.9in /  1013.3hPa ESE 8.7mph /  14km/h 16mph /  25.7km/h 51.1% 0in /  0.0mm
17:14 71.2 °F /  21.8 °C 52.3 °F /  11.3 °C 29.9in /  1013.3hPa ESE 8.7mph /  14km/h 13.8mph /  22.2km/h 51.2% 0in /  0.0mm
17:19 71.2 °F /  21.8 °C 52.2 °F /  11.2 °C 29.9in /  1013.3hPa Este 8.3mph /  13.4km/h 16.8mph /  27km/h 51% 0in /  0.0mm
17:24 71.2 °F /  21.8 °C 52.2 °F /  11.2 °C 29.9in /  1013.1hPa Este 7.4mph /  11.9km/h 17.3mph /  27.8km/h 51% 0in /  0.0mm
17:29 71.2 °F /  21.8 °C 52 °F /  11.1 °C 29.9in /  1013.1hPa SE 7.8mph /  12.5km/h 14mph /  22.5km/h 50.5% 0in /  0.0mm
17:34 71.2 °F /  21.8 °C 51.6 °F /  10.9 °C 29.9in /  1013.1hPa SE 8.7mph /  14km/h 19.7mph /  31.7km/h 50% 0in /  0.0mm
17:39 71.1 °F /  21.7 °C 51.4 °F /  10.8 °C 29.9in /  1013.1hPa ESE 9mph /  14.5km/h 20mph /  32.2km/h 50.3% 0in /  0.0mm
17:44 71.1 °F /  21.7 °C 51.6 °F /  10.9 °C 29.9in /  1013.1hPa ESE 9.7mph /  15.6km/h 17mph /  27.4km/h 50.4% 0in /  0.0mm
17:49 71.1 °F /  21.7 °C 51.6 °F /  10.9 °C 29.9in /  1013.1hPa Este 9.3mph /  15km/h 15mph /  24.1km/h 50.2% 0in /  0.0mm
17:54 70.9 °F /  21.6 °C 51.4 °F /  10.8 °C 29.9in /  1013.1hPa Este 8.5mph /  13.7km/h 17.5mph /  28.2km/h 50% 0in /  0.0mm
17:59 70.9 °F /  21.6 °C 51.4 °F /  10.8 °C 29.9in /  1013.1hPa ESE 8.8mph /  14.1km/h 17mph /  27.4km/h 50% 0in /  0.0mm
18:04 71.2 °F /  21.8 °C 51.4 °F /  10.8 °C 29.9in /  1013.1hPa ESE 9.2mph /  14.8km/h 16mph /  25.7km/h 49.5% 0in /  0.0mm
18:09 71.2 °F /  21.8 °C 51.4 °F /  10.8 °C 29.9in /  1013.0hPa Este 8.8mph /  14.2km/h 17mph /  27.4km/h 49.6% 0in /  0.0mm
18:14 70.9 °F /  21.6 °C 51.4 °F /  10.8 °C 29.9in /  1013.0hPa ESE 8.1mph /  13km/h 18.5mph /  29.8km/h 50% 0in /  0.0mm
18:19 71.1 °F /  21.7 °C 51.3 °F /  10.7 °C 29.9in /  1013.0hPa ESE 8.6mph /  13.9km/h 19mph /  30.6km/h 49.9% 0in /  0.0mm
18:24 70.7 °F /  21.5 °C 51.3 °F /  10.7 °C 29.9in /  1012.8hPa ESE 10mph /  16.1km/h 16.1mph /  25.9km/h 50% 0in /  0.0mm
18:29 70.3 °F /  21.3 °C 51.1 °F /  10.6 °C 29.9in /  1012.8hPa ESE 10.2mph /  16.4km/h 16.1mph /  25.9km/h 50.5% 0in /  0.0mm
18:34 70.3 °F /  21.3 °C 51.3 °F /  10.7 °C 29.9in /  1012.9hPa ESE 10.7mph /  17.2km/h 18.4mph /  29.6km/h 50.8% 0in /  0.0mm
18:39 70.3 °F /  21.3 °C 51.3 °F /  10.7 °C 29.9in /  1012.9hPa ESE 10.5mph /  16.9km/h 18mph /  29km/h 51% 0in /  0.0mm
18:44 70.3 °F /  21.3 °C 51.3 °F /  10.7 °C 29.9in /  1012.9hPa SE 10mph /  16.1km/h 15mph /  24.1km/h 51% 0in /  0.0mm
18:49 70.5 °F /  21.4 °C 51.3 °F /  10.7 °C 29.9in /  1012.9hPa SE 9.6mph /  15.5km/h 14.5mph /  23.3km/h 50.5% 0in /  0.0mm
18:54 70.5 °F /  21.4 °C 51.4 °F /  10.8 °C 29.9in /  1012.9hPa ESE 8.7mph /  14km/h 16.3mph /  26.2km/h 51% 0in /  0.0mm
18:59 70.3 °F /  21.3 °C 51.3 °F /  10.7 °C 29.9in /  1012.9hPa ESE 9.1mph /  14.7km/h 16mph /  25.7km/h 51% 0in /  0.0mm
19:04 70.2 °F /  21.2 °C 51.3 °F /  10.7 °C 29.9in /  1012.9hPa ESE 9.7mph /  15.6km/h 15mph /  24.1km/h 51% 0in /  0.0mm
19:09 70.3 °F /  21.3 °C 51.3 °F /  10.7 °C 29.9in /  1012.9hPa SE 9.2mph /  14.8km/h 14mph /  22.5km/h 51% 0in /  0.0mm
19:14 70.2 °F /  21.2 °C 51.3 °F /  10.7 °C 29.9in /  1012.9hPa ESE 8.1mph /  13km/h 16.1mph /  25.9km/h 51.3% 0in /  0.0mm
19:19 70 °F /  21.1 °C 51.6 °F /  10.9 °C 29.9in /  1012.9hPa ESE 8.2mph /  13.2km/h 16mph /  25.7km/h 52% 0in /  0.0mm
19:24 70.2 °F /  21.2 °C 51.6 °F /  10.9 °C 29.9in /  1012.9hPa ESE 8.5mph /  13.7km/h 17mph /  27.4km/h 52% 0in /  0.0mm
19:29 69.8 °F /  21 °C 51.6 °F /  10.9 °C 29.9in /  1012.9hPa ESE 8.4mph /  13.5km/h 17.3mph /  27.8km/h 52.5% 0in /  0.0mm
19:34 69.4 °F /  20.8 °C 51.6 °F /  10.9 °C 29.9in /  1012.9hPa ESE 8.1mph /  13km/h 17mph /  27.4km/h 53% 0in /  0.0mm
19:39 69.3 °F /  20.7 °C 51.6 °F /  10.9 °C 29.9in /  1012.8hPa ESE 8.4mph /  13.6km/h 15mph /  24.1km/h 53.4% 0in /  0.0mm
19:44 69.1 °F /  20.6 °C 51.6 °F /  10.9 °C 29.9in /  1012.8hPa ESE 9.2mph /  14.8km/h 14mph /  22.5km/h 54% 0in /  0.0mm
19:49 68.7 °F /  20.4 °C 51.8 °F /  11 °C 29.9in /  1013.0hPa ESE 8.9mph /  14.3km/h 14mph /  22.5km/h 54.8% 0in /  0.0mm
19:54 68.5 °F /  20.3 °C 51.8 °F /  11 °C 29.9in /  1013.0hPa SE 8.1mph /  13km/h 15.9mph /  25.6km/h 55% 0in /  0.0mm
19:59 68.4 °F /  20.2 °C 51.6 °F /  10.9 °C 29.9in /  1013.0hPa ESE 8.5mph /  13.7km/h 16.1mph /  25.9km/h 55.1% 0in /  0.0mm
20:04 68.2 °F /  20.1 °C 51.8 °F /  11 °C 29.9in /  1013.1hPa ESE 9.2mph /  14.8km/h 14mph /  22.5km/h 55.9% 0in /  0.0mm
20:09 67.8 °F /  19.9 °C 51.6 °F /  10.9 °C 29.9in /  1013.1hPa ESE 8.7mph /  14km/h 14mph /  22.5km/h 56% 0in /  0.0mm
20:14 68 °F /  20 °C 51.8 °F /  11 °C 29.9in /  1013.1hPa ESE 7.6mph /  12.2km/h 14mph /  22.5km/h 56% 0in /  0.0mm
20:19 68 °F /  20 °C 52 °F /  11.1 °C 29.9in /  1013.3hPa ESE 7.5mph /  12.1km/h 17.3mph /  27.8km/h 56.7% 0in /  0.0mm
20:24 67.6 °F /  19.8 °C 52.2 °F /  11.2 °C 29.9in /  1013.3hPa ESE 7.4mph /  11.9km/h 17.3mph /  27.8km/h 57.5% 0in /  0.0mm
20:29 67.5 °F /  19.7 °C 52.2 °F /  11.2 °C 29.9in /  1013.3hPa SE 7.5mph /  12km/h 12.7mph /  20.4km/h 58% 0in /  0.0mm
20:34 67.3 °F /  19.6 °C 52.3 °F /  11.3 °C 29.9in /  1013.3hPa ESE 7.6mph /  12.2km/h 13mph /  20.9km/h 58.5% 0in /  0.0mm
20:39 67.1 °F /  19.5 °C 52.3 °F /  11.3 °C 29.9in /  1013.3hPa ESE 7.1mph /  11.5km/h 10mph /  16.1km/h 59% 0in /  0.0mm
20:44 66.9 °F /  19.4 °C 52.2 °F /  11.2 °C 29.9in /  1013.3hPa ESE 6.2mph /  10km/h 9.2mph /  14.8km/h 59% 0in /  0.0mm
20:49 66.7 °F /  19.3 °C 52.3 °F /  11.3 °C 29.9in /  1013.4hPa ESE 6.3mph /  10.1km/h 11.8mph /  19km/h 60% 0in /  0.0mm
20:54 66.4 °F /  19.1 °C 52.3 °F /  11.3 °C 29.9in /  1013.4hPa ESE 6.4mph /  10.3km/h 13.7mph /  22km/h 60.4% 0in /  0.0mm
20:59 66.4 °F /  19.1 °C 52.5 °F /  11.4 °C 29.9in /  1013.4hPa ESE 6.4mph /  10.3km/h 14mph /  22.5km/h 61% 0in /  0.0mm
21:04 66.4 °F /  19.1 °C 52.5 °F /  11.4 °C 29.9in /  1013.6hPa Este 6.4mph /  10.3km/h 10mph /  16.1km/h 61% 0in /  0.0mm
21:09 66.2 °F /  19 °C 52.3 °F /  11.3 °C 29.9in /  1013.6hPa NNE 5.7mph /  9.1km/h 7.4mph /  11.9km/h 61% 0in /  0.0mm
21:14 65.7 °F /  18.7 °C 52.3 °F /  11.3 °C 29.9in /  1013.6hPa NNE 4mph /  6.5km/h 10.4mph /  16.7km/h 61.8% 0in /  0.0mm
21:19 65.1 °F /  18.4 °C 52.3 °F /  11.3 °C 29.9in /  1013.8hPa NNE 4.7mph /  7.5km/h 11.5mph /  18.5km/h 63% 0in /  0.0mm
21:24 64.9 °F /  18.3 °C 52.3 °F /  11.3 °C 29.9in /  1013.8hPa NE 6.2mph /  10km/h 12mph /  19.3km/h 63.7% 0in /  0.0mm
21:29 64.9 °F /  18.3 °C 52.5 °F /  11.4 °C 29.9in /  1013.8hPa NNE 6mph /  9.6km/h 10.7mph /  17.2km/h 64% 0in /  0.0mm
21:34 64.4 °F /  18 °C 52.2 °F /  11.2 °C 29.9in /  1014.0hPa NE 5.4mph /  8.7km/h 11.8mph /  19km/h 64.5% 0in /  0.0mm
21:39 63.9 °F /  17.7 °C 52.2 °F /  11.2 °C 29.9in /  1014.0hPa NE 6mph /  9.7km/h 12mph /  19.3km/h 65.6% 0in /  0.0mm
21:44 63.5 °F /  17.5 °C 52.2 °F /  11.2 °C 29.9in /  1014.0hPa NNE 7.6mph /  12.2km/h 12mph /  19.3km/h 66.3% 0in /  0.0mm
21:49 63.3 °F /  17.4 °C 52.2 °F /  11.2 °C 29.9in /  1014.1hPa NNE 7.5mph /  12.1km/h 11.8mph /  19km/h 67% 0in /  0.0mm
21:54 63.1 °F /  17.3 °C 52 °F /  11.1 °C 29.9in /  1014.1hPa NE 7.4mph /  11.9km/h 12mph /  19.3km/h 67% 0in /  0.0mm
21:59 63 °F /  17.2 °C 52.2 °F /  11.2 °C 29.9in /  1014.1hPa NNE 6.8mph /  10.9km/h 11.5mph /  18.5km/h 67.5% 0in /  0.0mm
22:04 62.8 °F /  17.1 °C 52 °F /  11.1 °C 30in /  1014.2hPa NE 5.9mph /  9.5km/h 12mph /  19.3km/h 68% 0in /  0.0mm
22:09 62.4 °F /  16.9 °C 52.2 °F /  11.2 °C 30in /  1014.2hPa NNE 6mph /  9.6km/h 9.7mph /  15.6km/h 68.9% 0in /  0.0mm
22:14 62.2 °F /  16.8 °C 52 °F /  11.1 °C 30in /  1014.2hPa NNE 6.2mph /  10km/h 10.4mph /  16.7km/h 69.3% 0in /  0.0mm
22:19 62.1 °F /  16.7 °C 52.2 °F /  11.2 °C 30in /  1014.4hPa NNE 6.2mph /  10km/h 10mph /  16.1km/h 70% 0in /  0.0mm
22:24 62.1 °F /  16.7 °C 52.2 °F /  11.2 °C 30in /  1014.4hPa NNE 6.2mph /  10km/h 9mph /  14.5km/h 70% 0in /  0.0mm
22:29 61.9 °F /  16.6 °C 52 °F /  11.1 °C 30in /  1014.4hPa NNE 5.7mph /  9.2km/h 10.4mph /  16.7km/h 70% 0in /  0.0mm
22:34 61.5 °F /  16.4 °C 52 °F /  11.1 °C 30in /  1014.5hPa NNE 4.7mph /  7.6km/h 10.4mph /  16.7km/h 71% 0in /  0.0mm
22:39 61.3 °F /  16.3 °C 52 °F /  11.1 °C 30in /  1014.5hPa NE 5mph /  8.1km/h 10.4mph /  16.7km/h 71.5% 0in /  0.0mm
22:44 61.2 °F /  16.2 °C 52.2 °F /  11.2 °C 30in /  1014.5hPa NNE 5.9mph /  9.5km/h 9mph /  14.5km/h 72% 0in /  0.0mm
22:49 61 °F /  16.1 °C 52 °F /  11.1 °C 30in /  1014.7hPa NNE 5.7mph /  9.2km/h 8mph /  12.9km/h 72.2% 0in /  0.0mm
22:54 61 °F /  16.1 °C 52.3 °F /  11.3 °C 30in /  1014.7hPa NNE 5.2mph /  8.4km/h 7mph /  11.3km/h 73% 0in /  0.0mm
22:59 61 °F /  16.1 °C 52.2 °F /  11.2 °C 30in /  1014.7hPa NE 4.8mph /  7.8km/h 8.1mph /  13km/h 73% 0in /  0.0mm
23:04 60.8 °F /  16 °C 52 °F /  11.1 °C 30in /  1014.9hPa NNE 4.3mph /  6.9km/h 8mph /  12.9km/h 73% 0in /  0.0mm
23:09 60.6 °F /  15.9 °C 52 °F /  11.1 °C 30in /  1014.9hPa NNE 4.4mph /  7.1km/h 7mph /  11.3km/h 73.3% 0in /  0.0mm
23:14 60.6 °F /  15.9 °C 52.3 °F /  11.3 °C 30in /  1014.9hPa NNE 4.7mph /  7.6km/h 7mph /  11.3km/h 74% 0in /  0.0mm
23:19 60.6 °F /  15.9 °C 52.3 °F /  11.3 °C 30in /  1014.9hPa NNE 4.3mph /  6.9km/h 6.4mph /  10.3km/h 74% 0in /  0.0mm
23:24 60.6 °F /  15.9 °C 52.3 °F /  11.3 °C 30in /  1014.9hPa NNE 3.1mph /  5km/h 7mph /  11.3km/h 74% 0in /  0.0mm
23:29 60.6 °F /  15.9 °C 52.3 °F /  11.3 °C 30in /  1014.9hPa NE 2.9mph /  4.7km/h 7mph /  11.3km/h 74% 0in /  0.0mm
23:34 60.6 °F /  15.9 °C 52.3 °F /  11.3 °C 30in /  1015.0hPa NNE 2.4mph /  3.9km/h 6.2mph /  10km/h 74% 0in /  0.0mm
23:39 60.6 °F /  15.9 °C 52.3 °F /  11.3 °C 30in /  1015.0hPa NNE 2.8mph /  4.5km/h 8.1mph /  13km/h 74% 0in /  0.0mm
23:44 60.4 °F /  15.8 °C 52.2 °F /  11.2 °C 30in /  1015.0hPa NNE 3.6mph /  5.8km/h 8.1mph /  13km/h 74% 0in /  0.0mm
23:49 60.4 °F /  15.8 °C 52.2 °F /  11.2 °C 30in /  1015.2hPa NNE 3.8mph /  6.1km/h 8mph /  12.9km/h 74.5% 0in /  0.0mm
23:54 60.3 °F /  15.7 °C 52.3 °F /  11.3 °C 30in /  1015.2hPa NNE 4.3mph /  6.9km/h 7mph /  11.3km/h 75% 0in /  0.0mm
23:59 60.3 °F /  15.7 °C 52.3 °F /  11.3 °C 30in /  1015.2hPa NE 4.3mph /  6.9km/h 7mph /  11.3km/h 75% 0in /  0.0mm
Murcia-Puente Tocinos, España
Compliments of Weather Underground - 3 mb

La estación de MeteoMurcia.com, publica sus datos en los siguientes proyectos:

Weather Underground PWS IMURCIAP2 Meteoclimatic www.awekas.at

W3Counter
Web Analytics